»·PEaware :: DEPFZ L52-L88

DEPFZ :: L52-L88

FLIGHT INFORMATION

Flight Status: Arrived
Operator: Unknown
More flights by this operator :: More flights under this callsign
Pilot: Henrik G. (22897)
Aircraft: CESSNA 172 SKYHAWK
(C172)
More flights by this aircraft type
Origin: L52 Oceano Co
United States
Destination: L88 New Cuyama
United States
More flights between these airports :: More routes between these airports
Route:
File this flight plan on PilotEdge
Remarks:
Altitude:
(Current/Filed)
5,500ft
Speed:
(Current/Filed)
90kts
Departed: 08-Jan-19 12:06 PM
Arrived: 08-Jan-19 12:39 PM
Distance/Time
Traveled:
47nm/0:33
Distance/Time
To Go:
Arrived

Flight Plot

Page will automatically refresh every two minutes.


Map Options




Map Legend


Flown Route
Filed Route
Departure Airport
Arrival Airport
Navaid (VOR, NDB)
Fix

Horizontal Profiles

Position Reports

Time Latitude Longitude Heading Altitude Ground
Speed
08-Jan-19 11:53 35.103314 -120.624562 213 18ft 0kts
08-Jan-19 11:54 35.103314 -120.624562 213 18ft 0kts
08-Jan-19 11:55 35.103314 -120.624562 213 18ft 0kts
08-Jan-19 11:56 35.103314 -120.624562 213 18ft 0kts
08-Jan-19 11:57 35.103273 -120.624594 212 18ft 0kts
08-Jan-19 11:58 35.103273 -120.624594 212 18ft 0kts
08-Jan-19 11:59 35.103273 -120.624594 212 18ft 0kts
08-Jan-19 12:00 35.103273 -120.624594 212 18ft 0kts
08-Jan-19 12:01 35.103273 -120.624594 212 18ft 0kts
08-Jan-19 12:02 35.103273 -120.624594 212 18ft 0kts
08-Jan-19 12:03 35.103541 -120.625240 256 18ft 3kts
08-Jan-19 12:04 35.102908 -120.624856 118 18ft 28kts
08-Jan-19 12:05 35.093983 -120.605917 117 573ft 76kts
08-Jan-19 12:06 35.088204 -120.581326 86 1376ft 77kts
08-Jan-19 12:07 35.089464 -120.555449 82 2142ft 76kts
08-Jan-19 12:08 35.089592 -120.529477 91 2813ft 78kts
08-Jan-19 12:09 35.085929 -120.503519 93 3473ft 77kts
08-Jan-19 12:10 35.084091 -120.477520 91 4085ft 76kts
08-Jan-19 12:11 35.079384 -120.452030 93 4679ft 76kts
08-Jan-19 12:12 35.077394 -120.426787 90 5216ft 73kts
08-Jan-19 12:13 35.074102 -120.402099 99 5478ft 80kts
08-Jan-19 12:14 35.066802 -120.374637 92 5557ft 88kts
08-Jan-19 12:15 35.064212 -120.342691 90 5535ft 94kts
08-Jan-19 12:16 35.062771 -120.310278 92 5530ft 97kts
08-Jan-19 12:17 35.057808 -120.279315 92 5556ft 97kts
08-Jan-19 12:18 35.056499 -120.246217 84 5569ft 95kts
08-Jan-19 12:19 35.057069 -120.211619 82 5387ft 118kts
08-Jan-19 12:20 35.059072 -120.173640 89 5488ft 111kts
08-Jan-19 12:21 35.061913 -120.136999 79 5539ft 111kts
08-Jan-19 12:22 35.068454 -120.100464 83 5578ft 112kts
08-Jan-19 12:23 35.072426 -120.062388 86 5576ft 112kts
08-Jan-19 12:24 35.066523 -120.026799 115 5595ft 108kts
08-Jan-19 12:25 35.057767 -119.994978 106 5605ft 110kts
08-Jan-19 12:26 35.052369 -119.956435 110 5424ft 114kts
08-Jan-19 12:27 35.042525 -119.921346 121 5428ft 104kts
08-Jan-19 12:28 35.031781 -119.890278 118 5431ft 108kts
08-Jan-19 12:29 35.019658 -119.851702 115 4721ft 137kts
08-Jan-19 12:30 35.005179 -119.811672 114 4261ft 134kts
08-Jan-19 12:31 34.987599 -119.773606 135 3771ft 112kts
08-Jan-19 12:32 34.969500 -119.750781 139 3230ft 84kts
08-Jan-19 12:33 34.956302 -119.728016 128 3127ft 81kts
08-Jan-19 12:34 34.943444 -119.705510 137 3208ft 77kts
08-Jan-19 12:35 34.932374 -119.684866 120 3183ft 62kts
08-Jan-19 12:36 34.928851 -119.666068 86 3122ft 56kts
08-Jan-19 12:37 34.939099 -119.683530 296 2180ft 65kts
08-Jan-19 12:38 34.942888 -119.690677 148 2167ft 7kts
08-Jan-19 12:39 34.942524 -119.689815 114 2167ft 0kts
08-Jan-19 12:40 34.942524 -119.689815 114 2167ft 0kts
08-Jan-19 12:41 34.942524 -119.689815 114 2167ft 0kts
08-Jan-19 12:42 34.942524 -119.689815 114 2167ft 0kts
08-Jan-19 12:43 34.942524 -119.689815 114 2167ft 0kts
08-Jan-19 12:44 34.942524 -119.689815 114 2167ft 0kts
08-Jan-19 12:45 34.942524 -119.689815 114 2167ft 0kts
08-Jan-19 12:46 34.942524 -119.689815 114 2167ft 0kts
08-Jan-19 12:47 34.942524 -119.689815 114 2167ft 0kts
08-Jan-19 12:48 34.942524 -119.689815 114 2167ft 0kts
08-Jan-19 12:49 34.942524 -119.689815 114 2167ft 0kts
08-Jan-19 12:50 34.942524 -119.689815 114 2167ft 0kts
08-Jan-19 12:51 34.942524 -119.689815 114 2167ft 0kts
08-Jan-19 12:52 34.942524 -119.689815 114 2167ft 0kts

Navigation Log

Ident Type
Flight plan parsing failed, navigation log unavailable